createdAt,value
2022-12-07T00:01:53.922Z,85.20
2022-12-07T00:04:20.948Z,85.30
2022-12-07T00:06:51.367Z,85.30
2022-12-07T00:09:18.571Z,85.30
2022-12-07T00:11:50.752Z,85.30
2022-12-07T00:14:18.131Z,85.40
2022-12-07T00:16:45.253Z,85.30
2022-12-07T00:19:13.593Z,85.30
2022-12-07T00:21:40.622Z,85.30
2022-12-07T00:24:07.867Z,85.20
2022-12-07T00:26:36.443Z,85.10
2022-12-07T00:29:22.690Z,85.00
2022-12-07T00:31:49.806Z,85.00
2022-12-07T00:34:18.738Z,85.00
2022-12-07T00:36:45.851Z,85.10
2022-12-07T00:39:12.898Z,85.10
2022-12-07T00:41:40.067Z,85.20
2022-12-07T00:44:07.127Z,85.20
2022-12-07T00:46:34.174Z,85.10
2022-12-07T00:49:01.270Z,85.10
2022-12-07T00:51:28.347Z,85.10
2022-12-07T00:53:55.317Z,85.00
2022-12-07T00:56:26.632Z,85.00
2022-12-07T00:58:55.146Z,85.50
2022-12-07T01:01:22.262Z,85.00
2022-12-07T01:03:49.207Z,85.00
2022-12-07T01:06:17.584Z,85.10
2022-12-07T01:08:44.530Z,85.10
2022-12-07T01:11:14.795Z,85.00
2022-12-07T01:13:41.837Z,85.00
2022-12-07T01:16:09.409Z,85.00
2022-12-07T01:18:37.017Z,85.00
2022-12-07T01:21:12.452Z,85.10
2022-12-07T01:23:39.605Z,85.10
2022-12-07T01:26:08.289Z,85.10
2022-12-07T01:28:35.243Z,85.10
2022-12-07T01:31:12.981Z,85.20
2022-12-07T01:33:40.442Z,85.30
2022-12-07T01:36:22.555Z,85.30
2022-12-07T01:38:52.716Z,86.00
2022-12-07T01:41:20.069Z,85.40
2022-12-07T01:44:21.221Z,85.40
2022-12-07T01:46:58.783Z,85.30
2022-12-07T01:49:37.405Z,85.30
2022-12-07T01:52:04.265Z,85.20
2022-12-07T01:54:31.707Z,85.30
2022-12-07T01:56:58.766Z,85.30
2022-12-07T01:59:26.901Z,85.20
2022-12-07T02:01:54.967Z,85.30
2022-12-07T02:04:22.575Z,85.40
2022-12-07T02:06:49.684Z,85.50
2022-12-07T02:09:16.600Z,85.50
2022-12-07T02:11:43.500Z,85.60
2022-12-07T02:14:10.339Z,85.80
2022-12-07T02:16:40.273Z,86.00
2022-12-07T02:19:31.965Z,86.00
2022-12-07T02:22:14.069Z,86.10
2022-12-07T02:24:54.120Z,86.00
2022-12-07T02:27:39.195Z,86.10
2022-12-07T02:30:11.304Z,86.10
2022-12-07T02:32:56.326Z,86.10
2022-12-07T02:35:29.954Z,86.20
2022-12-07T02:38:08.528Z,86.30
2022-12-07T02:41:05.714Z,86.40
2022-12-07T02:43:36.828Z,86.60
2022-12-07T02:46:09.572Z,86.60
2022-12-07T02:48:36.575Z,86.80
2022-12-07T02:51:03.602Z,87.10
2022-12-07T02:53:37.657Z,87.20
2022-12-07T02:56:39.711Z,87.20
2022-12-07T02:59:25.620Z,87.30
2022-12-07T03:02:01.528Z,87.50
2022-12-07T03:05:00.209Z,87.20
2022-12-07T03:07:52.205Z,87.10
2022-12-07T03:10:25.761Z,87.00
2022-12-07T03:13:18.179Z,86.80
2022-12-07T03:15:57.858Z,86.80
2022-12-07T03:18:26.040Z,86.60
2022-12-07T03:20:54.576Z,86.50
2022-12-07T03:23:21.580Z,86.40
2022-12-07T03:25:50.332Z,86.40
2022-12-07T03:28:18.775Z,86.50
2022-12-07T03:30:55.865Z,86.50
2022-12-07T03:33:30.095Z,86.50
2022-12-07T03:36:08.134Z,86.50
2022-12-07T03:38:39.432Z,86.50
2022-12-07T03:41:33.841Z,86.40
2022-12-07T03:44:00.765Z,86.50
2022-12-07T03:46:33.581Z,86.40
2022-12-07T03:49:02.034Z,86.20
2022-12-07T03:51:53.229Z,86.30
2022-12-07T03:54:34.758Z,86.30
2022-12-07T03:57:02.339Z,86.40
2022-12-07T03:59:29.261Z,86.30
2022-12-07T04:01:57.987Z,86.30
2022-12-07T04:04:25.389Z,86.40
2022-12-07T04:06:54.506Z,86.40
2022-12-07T04:09:28.908Z,86.30
2022-12-07T04:11:57.238Z,86.20
2022-12-07T04:14:24.189Z,86.40
2022-12-07T04:16:52.969Z,86.40
2022-12-07T04:19:20.955Z,86.40
2022-12-07T04:21:48.053Z,86.40
2022-12-07T04:24:15.560Z,86.40
2022-12-07T04:26:43.819Z,86.40
2022-12-07T04:29:10.984Z,86.30
2022-12-07T04:31:38.258Z,86.20
2022-12-07T04:34:05.464Z,86.20
2022-12-07T04:36:32.725Z,86.20
2022-12-07T04:38:59.786Z,86.10
2022-12-07T04:41:29.432Z,86.10
2022-12-07T04:43:57.159Z,86.10
2022-12-07T04:46:27.297Z,86.10
2022-12-07T04:48:54.431Z,86.10
2022-12-07T04:51:26.248Z,86.20
2022-12-07T04:53:53.240Z,86.10
2022-12-07T04:56:20.136Z,86.10
2022-12-07T04:58:47.631Z,86.10
2022-12-07T05:01:15.189Z,86.10
2022-12-07T05:03:42.075Z,86.10
2022-12-07T05:06:13.214Z,86.10
2022-12-07T05:08:40.822Z,86.10
2022-12-07T05:11:07.898Z,86.10
2022-12-07T05:13:34.894Z,86.00
2022-12-07T05:16:01.934Z,86.00
2022-12-07T05:18:28.883Z,86.10
2022-12-07T05:20:55.877Z,86.10
2022-12-07T05:23:22.698Z,86.20
2022-12-07T05:25:49.589Z,86.30
2022-12-07T05:28:16.457Z,86.90
2022-12-07T05:30:43.342Z,86.50
2022-12-07T05:33:10.266Z,86.30
2022-12-07T05:35:38.885Z,86.30
2022-12-07T05:38:05.828Z,86.30
2022-12-07T05:40:32.742Z,86.30
2022-12-07T05:43:04.240Z,86.20
2022-12-07T05:45:31.901Z,86.20
2022-12-07T05:47:59.379Z,86.20
2022-12-07T05:50:26.219Z,86.30
2022-12-07T05:53:01.467Z,86.30
2022-12-07T05:55:28.389Z,86.20
2022-12-07T05:58:14.017Z,86.20
2022-12-07T06:00:40.926Z,86.20
2022-12-07T06:03:07.937Z,86.00
2022-12-07T06:05:35.036Z,86.00
2022-12-07T06:08:05.905Z,86.00
2022-12-07T06:10:33.478Z,86.00
2022-12-07T06:13:00.401Z,86.40
2022-12-07T06:15:27.244Z,85.80
2022-12-07T06:17:54.097Z,85.90
2022-12-07T06:20:20.970Z,86.00
2022-12-07T06:22:47.929Z,85.90
2022-12-07T06:25:14.877Z,86.00
2022-12-07T06:27:41.847Z,86.00
2022-12-07T06:30:09.715Z,86.00
2022-12-07T06:32:37.620Z,85.90
2022-12-07T06:35:08.171Z,85.90
2022-12-07T06:37:35.036Z,85.80
2022-12-07T06:40:02.419Z,86.00
2022-12-07T06:42:29.670Z,85.80
2022-12-07T06:44:56.823Z,85.80
2022-12-07T06:47:41.580Z,85.80
2022-12-07T06:50:10.727Z,85.80
2022-12-07T06:52:37.580Z,86.10
2022-12-07T06:55:04.671Z,86.30
2022-12-07T06:57:31.583Z,86.40
2022-12-07T06:59:58.825Z,86.10
2022-12-07T07:02:25.895Z,85.80
2022-12-07T07:04:52.841Z,85.60
2022-12-07T07:07:19.900Z,85.40
2022-12-07T07:09:46.876Z,85.20
2022-12-07T07:12:13.873Z,84.90
2022-12-07T07:14:40.893Z,84.90
2022-12-07T07:17:07.899Z,84.90
2022-12-07T07:19:34.822Z,84.90
2022-12-07T07:22:02.284Z,84.80
2022-12-07T07:24:29.175Z,84.80
2022-12-07T07:26:56.075Z,84.70
2022-12-07T07:29:23.175Z,84.70
2022-12-07T07:31:50.118Z,84.80
2022-12-07T07:34:17.129Z,84.70
2022-12-07T07:36:44.053Z,84.60
2022-12-07T07:39:13.952Z,84.60
2022-12-07T07:41:41.180Z,84.60
2022-12-07T07:44:14.069Z,84.50
2022-12-07T07:46:40.974Z,84.50
2022-12-07T07:49:07.864Z,84.70
2022-12-07T07:51:34.733Z,85.00
2022-12-07T07:54:02.248Z,84.90
2022-12-07T07:56:29.188Z,84.90
2022-12-07T07:58:56.143Z,84.40
2022-12-07T08:01:24.689Z,84.20
2022-12-07T08:03:51.627Z,83.90
2022-12-07T08:06:18.560Z,83.80
2022-12-07T08:08:46.498Z,83.60
2022-12-07T08:11:13.448Z,83.50
2022-12-07T08:13:40.380Z,83.40
2022-12-07T08:16:12.949Z,83.40
2022-12-07T08:18:41.062Z,83.40
2022-12-07T08:21:08.472Z,83.50
2022-12-07T08:23:39.713Z,83.60
2022-12-07T08:26:08.769Z,83.70
2022-12-07T08:28:36.506Z,83.80
2022-12-07T08:31:04.814Z,83.80
2022-12-07T08:33:31.780Z,83.70
2022-12-07T08:36:05.806Z,83.70
2022-12-07T08:38:32.781Z,83.70
2022-12-07T08:40:59.898Z,83.70
2022-12-07T08:43:26.843Z,83.60
2022-12-07T08:46:13.666Z,83.60
2022-12-07T08:48:53.806Z,84.10
2022-12-07T08:51:21.910Z,83.50
2022-12-07T08:53:49.368Z,83.40
2022-12-07T08:56:16.282Z,83.40
2022-12-07T08:58:43.212Z,83.40
2022-12-07T09:01:10.755Z,83.40
2022-12-07T09:03:37.822Z,83.40
2022-12-07T09:06:05.363Z,83.20
2022-12-07T09:08:38.820Z,83.60
2022-12-07T09:11:06.061Z,83.50
2022-12-07T09:13:33.013Z,82.90
2022-12-07T09:16:00.057Z,82.70
2022-12-07T09:18:27.218Z,82.60
2022-12-07T09:20:54.155Z,82.50
2022-12-07T09:23:22.110Z,82.40
2022-12-07T09:25:49.154Z,82.30
2022-12-07T09:28:16.089Z,82.20
2022-12-07T09:31:21.750Z,82.00
2022-12-07T09:33:36.617Z,81.80
2022-12-07T09:36:04.616Z,81.80
2022-12-07T09:38:33.753Z,81.70
2022-12-07T09:41:05.886Z,81.60
2022-12-07T09:43:33.013Z,81.60
2022-12-07T09:45:59.976Z,81.60
2022-12-07T09:48:29.336Z,81.50
2022-12-07T09:50:56.301Z,81.60
2022-12-07T09:53:35.312Z,81.60
2022-12-07T09:56:02.332Z,81.60
2022-12-07T09:58:30.086Z,81.50
2022-12-07T10:01:11.337Z,81.40
2022-12-07T10:03:40.197Z,81.30
2022-12-07T10:06:07.360Z,81.30
2022-12-07T10:08:34.325Z,81.20
2022-12-07T10:11:04.606Z,81.80
2022-12-07T10:13:54.151Z,81.30
2022-12-07T10:16:38.338Z,81.20
2022-12-07T10:19:38.842Z,80.90
2022-12-07T10:22:13.659Z,80.80
2022-12-07T10:24:43.477Z,80.90
2022-12-07T10:27:30.423Z,80.90
2022-12-07T10:29:58.656Z,80.90
2022-12-07T10:32:36.252Z,81.30
2022-12-07T10:35:26.647Z,80.50
2022-12-07T10:37:54.488Z,80.40
2022-12-07T10:40:26.220Z,81.00
2022-12-07T10:43:07.252Z,80.50
2022-12-07T10:45:38.658Z,81.10
2022-12-07T10:48:09.382Z,80.60
2022-12-07T10:50:58.299Z,80.60
2022-12-07T10:54:00.345Z,80.60
2022-12-07T10:56:41.513Z,80.40
2022-12-07T10:59:34.673Z,80.20
2022-12-07T11:02:07.346Z,80.10
2022-12-07T11:04:55.625Z,80.20
2022-12-07T11:07:22.492Z,80.20
2022-12-07T11:10:10.691Z,80.20
2022-12-07T11:12:40.691Z,80.00
2022-12-07T11:15:18.583Z,80.00
2022-12-07T11:17:57.617Z,79.80
2022-12-07T11:20:55.266Z,79.60
2022-12-07T11:23:54.880Z,79.40
2022-12-07T11:26:49.842Z,79.40
2022-12-07T11:29:45.077Z,79.30
2022-12-07T11:32:41.289Z,79.20
2022-12-07T11:35:24.599Z,79.10
2022-12-07T11:37:56.145Z,79.00
2022-12-07T11:40:31.914Z,78.90
2022-12-07T11:43:11.024Z,78.60
2022-12-07T11:45:40.409Z,78.40
2022-12-07T11:48:17.927Z,78.10
2022-12-07T11:50:50.069Z,78.10
2022-12-07T11:53:26.347Z,78.10
2022-12-07T11:56:12.129Z,77.80
2022-12-07T11:58:48.654Z,78.10
2022-12-07T12:01:36.956Z,78.10
2022-12-07T12:04:07.889Z,78.00
2022-12-07T12:06:39.937Z,78.10
2022-12-07T12:09:40.318Z,78.10
2022-12-07T12:15:30.885Z,78.20
2022-12-07T12:18:12.582Z,78.10
2022-12-07T12:20:50.745Z,78.20
2022-12-07T12:23:25.542Z,78.30
2022-12-07T12:25:55.189Z,78.10
2022-12-07T12:28:49.909Z,77.90
2022-12-07T12:31:40.320Z,78.00
2022-12-07T12:34:50.427Z,78.10
2022-12-07T12:37:36.465Z,78.20
2022-12-07T12:40:15.727Z,77.60
2022-12-07T12:42:56.500Z,77.50
2022-12-07T12:45:25.789Z,76.90
2022-12-07T12:48:05.980Z,76.30
2022-12-07T12:50:36.770Z,75.10
2022-12-07T12:53:25.752Z,74.10
2022-12-07T12:56:20.252Z,72.90
2022-12-07T12:58:48.503Z,72.00
2022-12-07T13:01:39.780Z,71.80
2022-12-07T13:04:19.769Z,71.10
2022-12-07T13:06:46.633Z,70.70
2022-12-07T13:09:23.161Z,70.60
2022-12-07T13:11:50.139Z,70.40
2022-12-07T13:14:41.953Z,70.30
2022-12-07T13:17:33.624Z,70.20
2022-12-07T13:20:12.790Z,70.30
2022-12-07T13:22:45.266Z,69.60
2022-12-07T13:25:16.017Z,69.20
2022-12-07T13:27:43.883Z,69.00
2022-12-07T13:30:18.557Z,68.90
2022-12-07T13:32:55.355Z,68.80
2022-12-07T13:35:35.973Z,68.20
2022-12-07T13:38:04.940Z,67.50
2022-12-07T13:40:32.004Z,67.20
2022-12-07T13:43:00.963Z,66.70
2022-12-07T13:45:49.225Z,66.30
2022-12-07T13:48:30.986Z,65.80
2022-12-07T13:50:58.619Z,65.40
2022-12-07T13:53:25.741Z,65.10
2022-12-07T13:55:54.898Z,64.70
2022-12-07T13:58:22.772Z,64.40
2022-12-07T14:00:49.741Z,64.40
2022-12-07T14:03:17.024Z,64.60
2022-12-07T14:05:44.878Z,65.10
2022-12-07T14:08:11.961Z,65.50
2022-12-07T14:10:42.749Z,66.10
2022-12-07T14:13:32.759Z,66.50
2022-12-07T14:15:59.867Z,66.80
2022-12-07T14:18:31.887Z,67.30
2022-12-07T14:21:23.870Z,67.20
2022-12-07T14:24:18.414Z,66.90
2022-12-07T14:26:47.328Z,66.60
2022-12-07T14:29:27.120Z,67.20
2022-12-07T14:31:54.462Z,66.70
2022-12-07T14:34:22.391Z,66.90
2022-12-07T14:36:49.819Z,66.90
2022-12-07T14:39:16.841Z,67.00
2022-12-07T14:41:52.586Z,67.30
2022-12-07T14:44:23.959Z,67.40
2022-12-07T14:49:40.371Z,68.00
2022-12-07T14:54:55.106Z,68.80
2022-12-07T14:57:22.481Z,69.20
2022-12-07T14:59:49.312Z,69.50
2022-12-07T15:02:16.526Z,69.80
2022-12-07T15:04:43.592Z,70.20
2022-12-07T15:07:21.580Z,70.50
2022-12-07T15:09:49.193Z,70.90
2022-12-07T15:12:16.386Z,71.20
2022-12-07T15:14:44.003Z,71.40
2022-12-07T15:17:27.847Z,71.50
2022-12-07T15:19:59.079Z,71.80
2022-12-07T15:22:28.688Z,72.00
2022-12-07T15:24:59.099Z,72.30
2022-12-07T15:27:26.576Z,72.50
2022-12-07T15:29:54.855Z,72.70
2022-12-07T15:32:24.635Z,73.10
2022-12-07T15:34:51.548Z,73.30
2022-12-07T15:37:19.066Z,73.60
2022-12-07T15:39:45.932Z,74.00
2022-12-07T15:42:13.403Z,74.30
2022-12-07T15:45:01.361Z,74.50
2022-12-07T15:47:28.557Z,74.70
2022-12-07T15:49:58.589Z,75.00
2022-12-07T15:52:25.499Z,75.30
2022-12-07T15:54:52.539Z,75.50
2022-12-07T15:57:24.970Z,75.70
2022-12-07T15:59:52.532Z,76.00
2022-12-07T16:02:19.463Z,76.20
2022-12-07T16:04:46.402Z,76.40
2022-12-07T16:07:15.574Z,77.20
2022-12-07T16:09:43.710Z,76.80
2022-12-07T16:12:11.201Z,77.10
2022-12-07T16:14:41.047Z,77.30
2022-12-07T16:17:08.663Z,77.60
2022-12-07T16:19:36.339Z,77.80
2022-12-07T16:22:04.102Z,78.00
2022-12-07T16:24:31.398Z,78.10
2022-12-07T16:26:58.338Z,78.30
2022-12-07T16:29:26.518Z,78.40
2022-12-07T16:31:53.719Z,78.60
2022-12-07T16:34:20.839Z,78.80
2022-12-07T16:37:03.787Z,78.90
2022-12-07T16:39:31.396Z,79.10
2022-12-07T16:41:58.337Z,79.20
2022-12-07T16:44:25.353Z,79.30
2022-12-07T16:46:52.297Z,79.30
2022-12-07T16:49:20.103Z,79.40
2022-12-07T16:51:48.266Z,79.50
2022-12-07T16:54:15.126Z,79.70
2022-12-07T16:56:42.440Z,80.00
2022-12-07T16:59:09.595Z,80.10
2022-12-07T17:01:37.066Z,80.20
2022-12-07T17:04:05.412Z,80.30
2022-12-07T17:06:32.706Z,80.40
2022-12-07T17:08:59.757Z,80.50
2022-12-07T17:11:31.959Z,80.70
2022-12-07T17:14:17.523Z,80.80
2022-12-07T17:16:44.733Z,80.80
2022-12-07T17:19:13.487Z,80.90
2022-12-07T17:21:40.553Z,80.60
2022-12-07T17:24:09.014Z,80.50
2022-12-07T17:26:36.296Z,80.60
2022-12-07T17:29:05.070Z,80.70
2022-12-07T17:31:33.493Z,81.00
2022-12-07T17:34:00.899Z,81.20
2022-12-07T17:36:29.939Z,81.10
2022-12-07T17:38:57.766Z,81.10
2022-12-07T17:41:44.674Z,81.10
2022-12-07T17:44:15.814Z,81.10
2022-12-07T17:46:42.823Z,81.20
2022-12-07T17:49:09.740Z,81.30
2022-12-07T17:52:02.657Z,81.50
2022-12-07T17:54:33.739Z,81.50
2022-12-07T17:57:00.846Z,81.70
2022-12-07T17:59:27.907Z,81.80
2022-12-07T18:01:59.239Z,81.90
2022-12-07T18:04:26.707Z,82.00
2022-12-07T18:06:53.627Z,82.70
2022-12-07T18:09:22.057Z,83.40
2022-12-07T18:11:49.174Z,83.30
2022-12-07T18:14:16.932Z,82.90
2022-12-07T18:16:43.942Z,82.80
2022-12-07T18:19:13.497Z,82.60
2022-12-07T18:21:41.035Z,82.70
2022-12-07T18:24:13.369Z,82.70
2022-12-07T18:26:40.530Z,82.70
2022-12-07T18:29:08.568Z,82.60
2022-12-07T18:31:36.034Z,82.40
2022-12-07T18:34:12.204Z,82.40
2022-12-07T18:36:42.875Z,82.60
2022-12-07T18:39:09.970Z,82.70
2022-12-07T18:41:36.940Z,82.90
2022-12-07T18:44:04.376Z,82.80
2022-12-07T18:46:33.635Z,82.70
2022-12-07T18:49:00.813Z,82.90
2022-12-07T18:51:32.145Z,82.80
2022-12-07T18:54:01.267Z,83.00
2022-12-07T18:56:28.492Z,83.30
2022-12-07T18:59:16.303Z,83.50
2022-12-07T19:01:47.358Z,83.40
2022-12-07T19:04:14.534Z,83.40
2022-12-07T19:06:42.607Z,83.80
2022-12-07T19:09:09.666Z,83.50
2022-12-07T19:11:52.456Z,83.30
2022-12-07T19:14:19.931Z,83.50
2022-12-07T19:16:52.408Z,83.70
2022-12-07T19:19:22.086Z,83.80
2022-12-07T19:21:49.211Z,83.90
2022-12-07T19:24:22.801Z,84.60
2022-12-07T19:26:58.779Z,84.30
2022-12-07T19:29:31.865Z,84.30
2022-12-07T19:32:03.134Z,84.40
2022-12-07T19:34:49.463Z,84.60
2022-12-07T19:37:17.007Z,84.70
2022-12-07T19:39:54.517Z,84.60
2022-12-07T19:42:24.028Z,84.60
2022-12-07T19:44:55.284Z,84.60
2022-12-07T19:47:22.299Z,84.80
2022-12-07T19:49:49.451Z,84.80
2022-12-07T19:52:23.480Z,85.00
2022-12-07T19:54:50.810Z,85.10
2022-12-07T19:57:18.296Z,85.20
2022-12-07T19:59:51.157Z,85.30
2022-12-07T20:02:19.910Z,85.30
2022-12-07T20:04:48.213Z,85.50
2022-12-07T20:07:26.696Z,85.50
2022-12-07T20:09:58.132Z,85.60
2022-12-07T20:12:46.581Z,85.40
2022-12-07T20:15:21.284Z,85.50
2022-12-07T20:17:48.438Z,85.60
2022-12-07T20:20:19.482Z,85.50
2022-12-07T20:22:48.689Z,85.80
2022-12-07T20:25:18.201Z,86.10
2022-12-07T20:27:45.410Z,86.00
2022-12-07T20:30:12.560Z,85.70
2022-12-07T20:32:39.624Z,85.40
2022-12-07T20:35:06.907Z,85.10
2022-12-07T20:37:34.028Z,85.10
2022-12-07T20:40:01.360Z,85.10
2022-12-07T20:42:38.393Z,85.20
2022-12-07T20:45:08.631Z,85.40
2022-12-07T20:47:36.657Z,85.50
2022-12-07T20:50:05.244Z,85.70
2022-12-07T20:52:32.595Z,85.90
2022-12-07T20:54:59.867Z,86.10
2022-12-07T20:57:29.236Z,86.20
2022-12-07T20:59:56.404Z,86.20
2022-12-07T21:02:27.120Z,86.30
2022-12-07T21:04:56.339Z,86.30
2022-12-07T21:07:23.474Z,86.50
2022-12-07T21:09:51.527Z,86.60
2022-12-07T21:12:18.954Z,86.80
2022-12-07T21:14:46.003Z,86.80
2022-12-07T21:17:13.046Z,86.80
2022-12-07T21:19:42.707Z,86.90
2022-12-07T21:22:09.840Z,87.00
2022-12-07T21:24:38.998Z,87.00
2022-12-07T21:27:06.579Z,87.10
2022-12-07T21:29:43.015Z,87.20
2022-12-07T21:32:11.399Z,87.30
2022-12-07T21:34:38.465Z,87.40
2022-12-07T21:37:07.188Z,87.40
2022-12-07T21:39:34.356Z,87.50
2022-12-07T21:42:01.398Z,87.60
2022-12-07T21:44:28.395Z,87.70
2022-12-07T21:46:55.407Z,87.80
2022-12-07T21:49:22.423Z,87.90
2022-12-07T21:51:49.543Z,88.10
2022-12-07T21:54:19.262Z,88.30
2022-12-07T21:56:50.092Z,88.90
2022-12-07T21:59:21.449Z,88.40
2022-12-07T22:01:49.050Z,88.50
2022-12-07T22:04:21.504Z,88.50
2022-12-07T22:06:48.960Z,88.60
2022-12-07T22:09:16.223Z,88.70
2022-12-07T22:11:43.585Z,88.70
2022-12-07T22:14:29.201Z,88.80
2022-12-07T22:16:58.455Z,88.90
2022-12-07T22:19:26.430Z,88.90
2022-12-07T22:21:53.396Z,88.90
2022-12-07T22:24:20.557Z,89.00
2022-12-07T22:26:47.604Z,89.00
2022-12-07T22:29:14.918Z,89.00
2022-12-07T22:31:42.424Z,89.10
2022-12-07T22:34:16.849Z,89.10
2022-12-07T22:36:44.496Z,89.00
2022-12-07T22:39:11.606Z,89.00
2022-12-07T22:41:39.128Z,88.90
2022-12-07T22:44:07.816Z,88.90
2022-12-07T22:46:47.130Z,88.90
2022-12-07T22:49:14.340Z,89.00
2022-12-07T22:51:41.921Z,89.00
2022-12-07T22:54:19.077Z,89.10
2022-12-07T22:56:46.369Z,89.10
2022-12-07T22:59:14.322Z,89.10
2022-12-07T23:01:41.584Z,89.20
2022-12-07T23:04:08.933Z,89.30
2022-12-07T23:06:39.390Z,89.30
2022-12-07T23:09:08.333Z,89.30
2022-12-07T23:11:55.859Z,89.30
2022-12-07T23:14:28.667Z,89.30
2022-12-07T23:16:55.813Z,89.30
2022-12-07T23:19:22.819Z,89.50
2022-12-07T23:21:49.916Z,89.60
2022-12-07T23:24:17.136Z,90.00
2022-12-07T23:26:44.342Z,89.40
2022-12-07T23:29:16.888Z,89.30
2022-12-07T23:31:45.281Z,89.30
2022-12-07T23:34:12.645Z,89.20
2022-12-07T23:36:39.646Z,89.10
2022-12-07T23:39:06.808Z,89.10
2022-12-07T23:41:33.855Z,89.20
2022-12-07T23:44:01.219Z,89.40
2022-12-07T23:46:29.931Z,89.50
2022-12-07T23:48:57.680Z,89.60
2022-12-07T23:51:24.962Z,89.60
2022-12-07T23:53:52.263Z,89.60
2022-12-07T23:56:21.015Z,89.60
2022-12-07T23:58:48.407Z,89.60
